Time;durP1;ratioP1;P1;durP2;ratioP2;P2;SDS_P1;SDS_P2;PMS_P1;PMS_P2;Temp;Humidity;BMP_temperature;BMP_pressure;BME280_temperature;BME280_humidity;BME280_pressure;Samples;Min_cycle;Max_cycle;Signal;HPM_P1;HPM_P2
2023/07/06 00:01:57;;;;;;;5.80;1.80;;;;;;;15.21;80.18;100934.63;5013201;28;20455;-69
2023/07/06 00:04:23;;;;;;;7.73;1.67;;;;;;;15.16;80.58;100932.88;5013217;28;20444;-67
2023/07/06 00:06:50;;;;;;;7.10;1.87;;;;;;;15.10;81.23;100929.50;5012801;28;20571;-69
2023/07/06 00:09:16;;;;;;;6.30;1.93;;;;;;;15.09;81.42;100933.34;5013002;28;20463;-68
2023/07/06 00:11:47;;;;;;;6.30;1.90;;;;;;;15.01;82.62;100947.03;5012865;28;20986;-69
2023/07/06 00:14:15;;;;;;;7.27;2.70;;;;;;;14.99;83.03;100941.88;5013161;28;20483;-68
2023/07/06 00:16:46;;;;;;;7.43;2.03;;;;;;;14.95;83.63;100951.81;5013087;28;20455;-68
2023/07/06 00:19:18;;;;;;;5.43;1.63;;;;;;;14.94;83.40;100952.16;5013098;28;20522;-68
2023/07/06 00:21:45;;;;;;;5.60;1.80;;;;;;;14.87;83.45;100953.44;5012728;28;20979;-69
2023/07/06 00:24:11;;;;;;;6.30;2.23;;;;;;;14.93;82.96;100951.34;5013100;28;20910;-68
2023/07/06 00:26:38;;;;;;;8.80;1.73;;;;;;;14.94;83.42;100960.34;5012894;28;20463;-69
2023/07/06 00:29:06;;;;;;;6.50;1.70;;;;;;;14.93;83.43;100956.00;5012915;28;20547;-68
2023/07/06 00:31:32;;;;;;;7.80;2.17;;;;;;;14.89;83.37;100953.91;5012688;28;20436;-67
2023/07/06 00:34:04;;;;;;;5.30;1.43;;;;;;;14.91;81.29;100969.94;5012617;28;20935;-69
2023/07/06 00:36:31;;;;;;;6.60;1.87;;;;;;;14.83;79.05;100971.56;5012825;28;20875;-68
2023/07/06 00:39:01;;;;;;;12.10;1.87;;;;;;;14.74;78.70;100970.75;5012909;28;20870;-68
2023/07/06 00:41:28;;;;;;;8.90;1.83;;;;;;;14.70;79.08;100974.41;5012534;28;20966;-68
2023/07/06 00:43:56;;;;;;;5.80;1.87;;;;;;;14.63;82.42;100972.19;5012604;28;20891;-68
2023/07/06 00:46:29;;;;;;;5.50;1.70;;;;;;;14.64;83.29;100971.84;5012559;28;20970;-68
2023/07/06 00:48:57;;;;;;;6.53;2.17;;;;;;;14.63;84.00;100974.91;5016001;28;20982;-68
2023/07/06 00:51:28;;;;;;;6.33;1.50;;;;;;;14.60;84.43;100970.09;5016263;28;20432;-69
2023/07/06 00:53:57;;;;;;;5.73;2.00;;;;;;;14.58;84.82;100978.59;5016271;28;20483;-69
2023/07/06 00:56:29;;;;;;;5.87;1.90;;;;;;;14.62;85.01;100974.09;5016257;28;20452;-67
2023/07/06 00:59:02;;;;;;;5.00;1.43;;;;;;;14.58;85.44;100980.50;5016004;28;20538;-68
2023/07/06 01:01:31;;;;;;;5.93;1.93;;;;;;;14.59;85.46;100973.94;5015808;28;20914;-68
2023/07/06 01:03:59;;;;;;;7.90;2.67;;;;;;;14.56;85.70;100980.81;5016033;28;20451;-65
2023/07/06 01:06:30;;;;;;;8.77;2.40;;;;;;;14.59;85.67;100977.47;5015861;28;20494;-67
2023/07/06 01:08:58;;;;;;;7.03;2.40;;;;;;;14.52;86.36;100985.31;5015811;28;20541;-66
2023/07/06 01:11:28;;;;;;;6.00;1.90;;;;;;;14.57;86.11;100981.63;5015883;28;20455;-68
2023/07/06 01:13:55;;;;;;;6.90;1.97;;;;;;;14.60;86.52;100984.50;5015909;28;20510;-68
2023/07/06 01:16:31;;;;;;;7.13;2.13;;;;;;;14.57;85.78;100993.34;5015814;28;20440;-68
2023/07/06 01:19:14;;;;;;;6.97;2.40;;;;;;;14.53;85.60;100984.19;5015718;28;20456;-67
2023/07/06 01:21:48;;;;;;;5.27;1.40;;;;;;;14.44;85.94;100977.91;5015807;28;20499;-68
2023/07/06 01:24:50;;;;;;;5.80;1.90;;;;;;;14.45;86.09;100981.41;5015734;28;20432;-68
2023/07/06 01:27:38;;;;;;;6.30;2.10;;;;;;;14.43;85.81;100979.00;5011885;28;20904;-68
2023/07/06 01:30:55;;;;;;;5.60;1.70;;;;;;;14.32;86.60;100989.41;5015344;28;20853;-68
2023/07/06 01:33:30;;;;;;;6.90;2.03;;;;;;;14.18;87.15;100988.72;4974165;28;20450;-69
2023/07/06 01:36:04;;;;;;;7.30;1.77;;;;;;;14.25;86.69;100986.31;4974164;28;20988;-70
2023/07/06 01:38:31;;;;;;;8.23;2.00;;;;;;;14.24;87.10;100984.72;4996498;28;20454;-69
2023/07/06 01:40:59;;;;;;;5.47;1.80;;;;;;;14.17;87.75;100980.88;5015053;28;20975;-69
2023/07/06 01:43:26;;;;;;;6.97;2.53;;;;;;;14.20;87.48;100993.84;5015380;28;20595;-71
2023/07/06 01:45:53;;;;;;;6.20;1.87;;;;;;;14.21;87.02;100979.91;5014910;28;20462;-69
2023/07/06 01:48:22;;;;;;;8.17;2.47;;;;;;;14.21;87.86;100985.38;5014981;28;20514;-69
2023/07/06 01:51:01;;;;;;;7.73;2.60;;;;;;;14.16;88.09;100987.41;5014921;28;20546;-68
2023/07/06 01:53:38;;;;;;;6.67;2.13;;;;;;;14.21;87.62;100987.25;5015227;28;20506;-69
2023/07/06 01:56:08;;;;;;;5.70;1.80;;;;;;;14.18;85.83;100988.72;5015312;28;20432;-69
2023/07/06 01:58:44;;;;;;;6.10;1.97;;;;;;;14.12;85.13;100976.34;5014626;28;20944;-69
2023/07/06 02:01:14;;;;;;;5.60;1.97;;;;;;;14.17;83.96;100989.03;5015077;28;20428;-70
2023/07/06 02:03:42;;;;;;;6.20;1.70;;;;;;;14.16;83.13;100990.94;5015077;28;20428;-68
2023/07/06 02:06:12;;;;;;;6.23;1.83;;;;;;;14.12;83.87;100988.06;5015066;28;20440;-68
2023/07/06 02:08:41;;;;;;;6.33;1.70;;;;;;;14.18;85.67;100994.16;5014632;28;20493;-69
2023/07/06 02:11:08;;;;;;;5.27;1.77;;;;;;;14.24;87.17;100998.34;5014521;28;20462;-68
2023/07/06 02:13:35;;;;;;;7.30;1.97;;;;;;;14.28;88.49;100991.13;5014430;28;20954;-69
2023/07/06 02:16:03;;;;;;;9.63;2.90;;;;;;;14.31;89.27;100990.53;5014673;28;20479;-69
2023/07/06 02:18:30;;;;;;;6.80;2.27;;;;;;;14.43;89.21;101000.78;5014729;28;20880;-67
2023/07/06 02:20:57;;;;;;;6.47;2.10;;;;;;;14.43;89.58;101003.53;5014573;28;20545;-68
2023/07/06 02:23:25;;;;;;;12.17;2.87;;;;;;;14.46;89.59;101013.00;5014270;28;20995;-68
2023/07/06 02:25:53;;;;;;;5.33;1.63;;;;;;;14.55;89.33;101011.13;5014516;28;20450;-69
2023/07/06 02:28:21;;;;;;;7.00;2.47;;;;;;;14.57;89.32;101004.25;5014404;28;20519;-69
2023/07/06 02:30:48;;;;;;;6.80;2.30;;;;;;;14.70;88.93;101013.41;5014001;28;20499;-69
2023/07/06 02:33:16;;;;;;;5.37;1.83;;;;;;;14.74;88.95;101019.84;5014459;28;20444;-69
2023/07/06 02:35:45;;;;;;;12.23;2.53;;;;;;;14.82;88.36;101020.97;5014036;28;20484;-70
2023/07/06 02:38:12;;;;;;;10.20;2.57;;;;;;;14.92;88.40;101020.69;5014051;28;20448;-70
2023/07/06 02:40:40;;;;;;;8.67;2.37;;;;;;;14.97;88.70;101027.91;5014125;28;20467;-70
2023/07/06 02:43:07;;;;;;;8.90;2.70;;;;;;;14.97;88.90;101019.72;5014313;28;20466;-69
2023/07/06 02:45:34;;;;;;;5.60;1.60;;;;;;;15.01;88.02;101021.47;5013978;28;20452;-69
2023/07/06 02:48:00;;;;;;;8.43;2.20;;;;;;;15.12;88.39;101030.94;5014104;28;20562;-69
2023/07/06 02:50:27;;;;;;;6.27;1.93;;;;;;;15.14;88.41;101028.72;5014062;28;20538;-69
2023/07/06 02:52:54;;;;;;;5.63;2.07;;;;;;;15.16;88.59;101030.31;5014110;28;20530;-68
2023/07/06 02:55:22;;;;;;;6.33;2.60;;;;;;;15.16;88.40;101024.84;5014073;28;20448;-68
2023/07/06 02:57:50;;;;;;;8.30;2.13;;;;;;;15.20;87.53;101025.81;5014067;28;20444;-68
2023/07/06 03:00:17;;;;;;;7.20;2.43;;;;;;;15.19;87.48;101026.94;5013419;28;20582;-68
2023/07/06 03:02:44;;;;;;;6.07;2.40;;;;;;;15.19;89.13;101026.94;5016600;23;20507;-70
2023/07/06 03:05:11;;;;;;;7.53;1.83;;;;;;;15.24;91.27;101026.78;4994203;28;20461;-73
2023/07/06 03:07:38;;;;;;;9.50;2.57;;;;;;;15.16;91.97;101025.66;4993831;28;21075;-72
2023/07/06 03:10:07;;;;;;;7.43;2.57;;;;;;;15.13;92.84;101031.75;4993671;28;20445;-71
2023/07/06 03:12:36;;;;;;;6.47;2.10;;;;;;;15.11;93.92;101023.09;4994014;28;20465;-75
2023/07/06 03:15:06;;;;;;;6.03;2.27;;;;;;;15.09;93.87;101031.56;4994129;28;20451;-74
2023/07/06 03:17:33;;;;;;;11.50;2.50;;;;;;;15.01;95.19;101024.22;4994188;28;20449;-72
2023/07/06 03:19:59;;;;;;;6.03;1.97;;;;;;;14.97;96.07;101019.72;4993744;28;20495;-72
2023/07/06 03:22:27;;;;;;;7.47;2.37;;;;;;;14.88;96.87;101025.97;4993854;28;20564;-75
2023/07/06 03:24:53;;;;;;;6.97;2.10;;;;;;;14.83;97.57;101030.75;4993957;28;20564;-74
2023/07/06 03:27:20;;;;;;;6.00;2.30;;;;;;;14.79;99.34;101027.06;4993901;28;20441;-75
2023/07/06 03:29:47;;;;;;;6.27;2.23;;;;;;;14.72;100.00;101027.53;4993848;28;20527;-75
2023/07/06 03:32:15;;;;;;;6.57;2.17;;;;;;;14.61;100.00;101031.69;4993744;28;20469;-73
2023/07/06 03:34:41;;;;;;;7.53;2.60;;;;;;;14.58;99.99;101035.03;4993758;28;20503;-73
2023/07/06 03:37:08;;;;;;;10.67;3.03;;;;;;;14.61;99.84;101031.69;4993485;28;20512;-74
2023/07/06 03:39:36;;;;;;;6.90;2.50;;;;;;;14.60;100.00;101036.31;4993726;28;20441;-74
2023/07/06 03:42:03;;;;;;;7.30;2.27;;;;;;;14.49;100.00;101045.13;4993626;28;20479;-72
2023/07/06 03:44:29;;;;;;;6.53;1.90;;;;;;;14.54;100.00;101047.69;4993695;28;20540;-74
2023/07/06 03:46:58;;;;;;;7.77;2.30;;;;;;;14.53;100.00;101046.09;4993498;28;20445;-75
2023/07/06 03:49:26;;;;;;;7.03;2.40;;;;;;;14.52;100.00;101042.56;4993527;28;20485;-75
2023/07/06 03:51:53;;;;;;;10.23;2.10;;;;;;;14.45;99.46;101046.84;4993588;28;20473;-74
2023/07/06 03:54:20;;;;;;;7.97;2.17;;;;;;;14.38;96.90;101050.00;4993690;28;20451;-74
2023/07/06 03:56:48;;;;;;;6.83;2.13;;;;;;;14.36;95.79;101054.97;4993636;28;20544;-75
2023/07/06 03:59:15;;;;;;;6.27;1.80;;;;;;;14.33;94.80;101061.03;4993587;28;20441;-75
2023/07/06 04:01:41;;;;;;;7.60;2.17;;;;;;;14.32;94.48;101062.97;4993270;28;20915;-74
2023/07/06 04:04:08;;;;;;;12.60;2.40;;;;;;;14.36;95.76;101063.16;4993275;28;21030;-74
2023/07/06 04:06:40;;;;;;;6.10;2.10;;;;;;;14.35;96.94;101059.63;4993508;28;20881;-75
2023/07/06 04:09:09;;;;;;;6.90;2.33;;;;;;;14.50;98.84;101058.41;4993561;28;20468;-75
2023/07/06 04:11:36;;;;;;;6.23;2.13;;;;;;;14.56;100.00;101069.97;4993137;28;20460;-72
2023/07/06 04:14:03;;;;;;;8.03;2.20;;;;;;;14.61;100.00;101064.41;4993465;28;20862;-73
2023/07/06 04:16:30;;;;;;;5.27;1.70;;;;;;;14.60;100.00;101069.03;4993148;28;20979;-74
2023/07/06 04:18:57;;;;;;;6.50;2.10;;;;;;;14.67;100.00;101063.13;4993424;28;20454;-74
2023/07/06 04:21:23;;;;;;;6.13;1.90;;;;;;;14.72;100.00;101068.44;4993277;28;20473;-74
2023/07/06 04:23:51;;;;;;;5.30;1.70;;;;;;;14.84;100.00;101068.63;4997126;28;20524;-72
2023/07/06 04:26:21;;;;;;;6.83;2.70;;;;;;;14.92;99.88;101068.94;4997101;28;20468;-70
2023/07/06 04:28:49;;;;;;;7.07;2.53;;;;;;;14.95;98.73;101068.31;4996999;28;20531;-73
2023/07/06 04:31:16;;;;;;;8.57;2.40;;;;;;;15.04;99.42;101075.38;4996931;28;20500;-70
2023/07/06 04:33:45;;;;;;;6.40;2.40;;;;;;;15.13;99.92;101078.13;4996957;28;20445;-70
2023/07/06 04:36:12;;;;;;;6.50;2.20;;;;;;;15.14;98.33;101085.22;4996936;28;20449;-72
2023/07/06 04:38:39;;;;;;;10.37;2.60;;;;;;;15.24;99.06;101090.34;4996831;28;20448;-73
2023/07/06 04:41:08;;;;;;;7.00;1.80;;;;;;;15.27;98.13;101097.91;4996509;28;21031;-72
2023/07/06 04:43:34;;;;;;;6.50;2.77;;;;;;;15.29;97.89;101103.84;4996504;28;20441;-72
2023/07/06 04:46:02;;;;;;;6.20;2.10;;;;;;;15.34;97.19;101103.69;4996478;28;20495;-75
2023/07/06 04:48:29;;;;;;;6.33;2.30;;;;;;;15.39;96.18;101114.44;4996665;28;20514;-70
2023/07/06 04:50:55;;;;;;;6.60;2.47;;;;;;;15.50;94.10;101114.13;4996728;28;20817;-70
2023/07/06 04:53:23;;;;;;;11.27;2.87;;;;;;;15.50;93.58;101109.47;4996637;28;20445;-70
2023/07/06 04:55:51;;;;;;;5.60;2.00;;;;;;;15.61;92.28;101099.03;4996618;28;20449;-70
2023/07/06 04:58:19;;;;;;;6.30;1.80;;;;;;;15.71;93.27;101104.19;4996540;28;20463;-71
2023/07/06 05:00:46;;;;;;;6.60;2.20;;;;;;;15.76;92.76;101097.75;4996463;28;20541;-70
2023/07/06 05:03:13;;;;;;;6.77;1.93;;;;;;;15.82;92.21;101102.72;4995988;28;20528;-70
2023/07/06 05:05:42;;;;;;;6.40;2.43;;;;;;;15.89;90.93;101107.69;4996374;28;20536;-69
2023/07/06 05:08:10;;;;;;;11.90;2.30;;;;;;;15.99;89.76;101112.03;4996287;28;20539;-70
2023/07/06 05:10:38;;;;;;;6.33;2.00;;;;;;;16.07;89.45;101108.47;4996309;28;20539;-70
2023/07/06 05:13:05;;;;;;;7.33;2.60;;;;;;;16.12;88.24;101117.31;4996219;28;20555;-70
2023/07/06 05:15:36;;;;;;;6.53;2.37;;;;;;;16.17;86.46;101119.06;4996170;28;20444;-70
2023/07/06 05:18:03;;;;;;;6.23;1.40;;;;;;;16.24;87.61;101118.56;4996260;28;20429;-70
2023/07/06 05:20:31;;;;;;;5.57;2.10;;;;;;;16.28;89.85;101124.97;4996068;28;20539;-70
2023/07/06 05:22:57;;;;;;;5.50;1.60;;;;;;;16.32;86.92;101126.72;4996061;28;20449;-70
2023/07/06 05:25:25;;;;;;;14.43;2.00;;;;;;;16.37;87.36;101129.28;4995753;28;20543;-70
2023/07/06 05:27:52;;;;;;;6.93;2.33;;;;;;;16.38;85.39;101130.91;4996030;28;20544;-70
2023/07/06 05:30:19;;;;;;;7.07;1.80;;;;;;;16.48;87.45;101137.16;4995895;28;20539;-70
2023/07/06 05:32:48;;;;;;;8.83;2.23;;;;;;;16.50;86.99;101132.94;4995399;28;20839;-73
2023/07/06 05:35:15;;;;;;;6.47;2.03;;;;;;;16.63;89.65;101136.59;4995744;28;20449;-75
2023/07/06 05:37:42;;;;;;;7.80;2.50;;;;;;;16.64;87.65;101139.03;4995825;28;20457;-73
2023/07/06 05:40:10;;;;;;;5.73;1.83;;;;;;;16.72;84.09;101142.84;4995502;28;20443;-72
2023/07/06 05:42:36;;;;;;;7.73;1.90;;;;;;;16.79;86.28;101140.44;4995392;28;20487;-72
2023/07/06 05:45:04;;;;;;;5.60;1.67;;;;;;;16.83;83.95;101140.56;4995977;28;20455;-71
2023/07/06 05:47:30;;;;;;;6.80;1.57;;;;;;;16.87;83.14;101147.78;4995621;28;20452;-72
2023/07/06 05:49:58;;;;;;;6.90;1.80;;;;;;;17.05;81.21;101153.19;4995567;28;20580;-71
2023/07/06 05:52:27;;;;;;;5.30;1.70;;;;;;;17.16;80.21;101157.13;4995435;28;20548;-69
2023/07/06 05:54:53;;;;;;;7.47;2.10;;;;;;;17.25;79.65;101157.06;4995202;28;21047;-71
2023/07/06 05:57:20;;;;;;;8.23;2.30;;;;;;;17.27;80.49;101147.41;4995136;28;20449;-72
2023/07/06 05:59:48;;;;;;;7.57;1.70;;;;;;;17.33;78.59;101156.22;4995096;28;20445;-74
2023/07/06 06:02:17;;;;;;;5.53;1.70;;;;;;;17.38;78.39;101161.50;4994949;28;20485;-74
2023/07/06 06:04:43;;;;;;;6.77;1.97;;;;;;;17.37;76.07;101160.69;4995362;28;20536;-75
2023/07/06 06:07:12;;;;;;;7.33;2.20;;;;;;;17.51;76.67;101156.91;4995314;28;20473;-72
2023/07/06 06:09:39;;;;;;;8.10;1.90;;;;;;;17.62;76.39;101160.84;4995080;28;20484;-73
2023/07/06 06:12:07;;;;;;;7.80;1.90;;;;;;;17.69;76.65;101161.09;4995092;28;20471;-71
2023/07/06 06:14:34;;;;;;;6.87;1.47;;;;;;;17.74;76.59;101168.34;4995093;28;20872;-76
2023/07/06 06:17:01;;;;;;;6.53;1.43;;;;;;;17.73;76.82;101172.19;4994765;28;20963;-75
2023/07/06 06:19:31;;;;;;;6.13;1.20;;;;;;;17.72;75.15;101176.88;4994721;28;20453;-76
2023/07/06 06:21:59;;;;;;;5.77;1.63;;;;;;;17.76;73.74;101180.59;4994631;28;21098;-72
2023/07/06 06:24:27;;;;;;;14.00;2.03;;;;;;;17.85;73.98;101178.56;4994954;28;20464;-72
2023/07/06 06:26:54;;;;;;;5.63;1.47;;;;;;;17.89;74.37;101182.25;4994550;28;20452;-72
2023/07/06 06:29:20;;;;;;;8.07;1.50;;;;;;;17.95;72.41;101184.78;4994406;28;20865;-73
2023/07/06 06:31:47;;;;;;;5.00;1.10;;;;;;;18.04;72.50;101189.03;4994631;28;20491;-72
2023/07/06 06:34:14;;;;;;;4.90;1.20;;;;;;;18.04;73.76;101191.78;4994760;28;20532;-71
2023/07/06 06:36:41;;;;;;;5.00;1.50;;;;;;;18.12;72.40;101195.59;4994681;28;20974;-70
2023/07/06 06:39:09;;;;;;;5.20;1.30;;;;;;;18.18;70.37;101193.44;4994421;28;20932;-72
2023/07/06 06:41:38;;;;;;;5.67;1.40;;;;;;;18.21;71.05;101199.06;4994528;28;20508;-74
2023/07/06 06:44:05;;;;;;;6.90;1.73;;;;;;;18.28;70.45;101198.47;4994118;28;20504;-72
2023/07/06 06:46:32;;;;;;;5.40;1.37;;;;;;;18.40;70.72;101201.28;4994262;28;20451;-73
2023/07/06 06:49:00;;;;;;;5.50;1.40;;;;;;;18.43;70.93;101202.56;4994154;28;20571;-73
2023/07/06 06:51:27;;;;;;;9.07;1.50;;;;;;;18.39;70.96;101205.97;4994387;28;20477;-72
2023/07/06 06:53:54;;;;;;;6.77;1.53;;;;;;;18.43;72.12;101208.03;4994245;28;20535;-72
2023/07/06 06:56:22;;;;;;;5.70;1.30;;;;;;;18.45;69.81;101213.97;4994121;28;20440;-72
2023/07/06 06:58:51;;;;;;;5.50;1.67;;;;;;;18.48;67.66;101213.31;4994025;28;20441;-72
2023/07/06 07:01:18;;;;;;;5.77;1.50;;;;;;;18.59;64.68;101211.72;4994029;28;20542;-72
2023/07/06 07:03:45;;;;;;;5.20;1.10;;;;;;;18.61;64.49;101212.19;4994234;28;20855;-72
2023/07/06 07:06:14;;;;;;;5.83;1.40;;;;;;;18.66;61.82;101212.75;4993811;28;20962;-72
2023/07/06 07:08:43;;;;;;;4.63;1.10;;;;;;;18.63;62.46;101215.38;4993685;28;20456;-72
2023/07/06 07:11:10;;;;;;;7.60;1.43;;;;;;;18.69;62.37;101222.31;4994152;28;20547;-72
2023/07/06 07:13:37;;;;;;;4.40;1.07;;;;;;;18.76;63.05;101221.72;4994089;28;20441;-72
2023/07/06 07:16:07;;;;;;;6.53;1.23;;;;;;;18.79;59.58;101218.31;4993716;28;20921;-73
2023/07/06 07:18:35;;;;;;;5.77;1.00;;;;;;;18.77;60.68;101220.56;4993952;28;20449;-72
2023/07/06 07:21:02;;;;;;;6.80;1.33;;;;;;;18.82;60.37;101215.69;4993915;28;20433;-71
2023/07/06 07:23:36;;;;;;;4.77;0.93;;;;;;;18.77;59.67;101213.16;4993867;28;20444;-72
2023/07/06 07:26:04;;;;;;;4.97;0.97;;;;;;;18.75;58.42;101223.69;4993963;28;20417;-72
2023/07/06 07:28:31;;;;;;;4.47;0.90;;;;;;;18.79;60.21;101219.09;4993630;28;20459;-73
2023/07/06 07:30:59;;;;;;;4.10;0.60;;;;;;;18.82;58.67;101225.88;4993475;28;20489;-72
2023/07/06 07:33:28;;;;;;;4.60;0.90;;;;;;;18.90;58.52;101227.69;4993533;28;20531;-73
2023/07/06 07:35:57;;;;;;;9.33;1.17;;;;;;;18.86;59.11;101218.56;4993790;28;20467;-72
2023/07/06 07:38:24;;;;;;;4.40;0.83;;;;;;;18.89;60.18;101231.59;4993993;28;20449;-72
2023/07/06 07:40:56;;;;;;;4.40;0.90;;;;;;;18.99;58.96;101224.84;4993706;28;20476;-73
2023/07/06 07:43:25;;;;;;;4.20;0.70;;;;;;;19.09;58.59;101232.66;4993700;28;20540;-72
2023/07/06 07:45:54;;;;;;;4.77;0.83;;;;;;;19.18;58.91;101230.59;4993763;28;20437;-73
2023/07/06 07:48:22;;;;;;;4.97;1.23;;;;;;;19.26;56.56;101224.19;4993782;28;20452;-72
2023/07/06 07:50:50;;;;;;;4.33;0.90;;;;;;;19.26;57.03;101228.88;4993585;28;20495;-73
2023/07/06 07:53:17;;;;;;;5.73;1.00;;;;;;;19.39;55.75;101236.75;4993669;28;20540;-72
2023/07/06 07:55:44;;;;;;;4.90;0.90;;;;;;;19.49;55.29;101237.44;4994242;28;20445;-72
2023/07/06 07:58:11;;;;;;;4.60;1.00;;;;;;;19.54;55.35;101237.19;4997166;28;20437;-72
2023/07/06 08:00:38;;;;;;;5.23;0.87;;;;;;;19.51;55.09;101227.69;4997017;28;20451;-73
2023/07/06 08:03:04;;;;;;;4.50;0.93;;;;;;;19.57;56.25;101231.00;4997109;28;20844;-73
2023/07/06 08:05:31;;;;;;;5.73;0.93;;;;;;;19.70;57.52;101229.88;4997525;28;20452;-73
2023/07/06 08:08:00;;;;;;;4.10;0.73;;;;;;;19.84;55.32;101235.00;4997372;28;20467;-72
2023/07/06 08:10:26;;;;;;;6.00;1.13;;;;;;;19.95;54.08;101232.53;4997037;28;21008;-71
2023/07/06 08:12:53;;;;;;;4.23;0.80;;;;;;;19.94;54.93;101236.44;4997331;28;20500;-73
2023/07/06 08:15:22;;;;;;;4.90;1.33;;;;;;;19.94;54.74;101241.94;4997292;28;20528;-72
2023/07/06 08:17:49;;;;;;;4.17;0.80;;;;;;;19.91;54.03;101248.94;4997230;28;20449;-72
2023/07/06 08:20:17;;;;;;;5.53;1.30;;;;;;;19.79;55.61;101252.53;4997207;28;20523;-72
2023/07/06 08:22:45;;;;;;;4.30;0.80;;;;;;;19.72;55.97;101252.31;4996822;28;20505;-72
2023/07/06 08:25:13;;;;;;;4.80;0.90;;;;;;;19.74;58.11;101241.75;4997413;28;20511;-72
2023/07/06 08:27:39;;;;;;;5.00;1.40;;;;;;;19.82;57.63;101254.56;4997133;28;20445;-72
2023/07/06 08:30:07;;;;;;;5.00;1.20;;;;;;;19.97;56.29;101255.81;4996716;28;21098;-72
2023/07/06 08:32:34;;;;;;;5.23;1.33;;;;;;;20.04;56.44;101255.19;4996995;28;20551;-72
2023/07/06 08:35:02;;;;;;;4.30;0.90;;;;;;;20.08;55.72;101250.59;4996928;28;20451;-71
2023/07/06 08:37:29;;;;;;;4.67;1.17;;;;;;;20.08;55.29;101247.84;4996913;28;20448;-72
2023/07/06 08:39:55;;;;;;;5.63;1.07;;;;;;;20.17;55.86;101249.31;4996625;28;20528;-72
2023/07/06 08:42:24;;;;;;;5.03;1.10;;;;;;;20.29;57.62;101250.41;4996780;28;20479;-72
2023/07/06 08:44:54;;;;;;;4.20;0.90;;;;;;;20.48;56.64;101258.03;4996825;28;20449;-72
2023/07/06 08:47:25;;;;;;;5.27;1.10;;;;;;;20.50;53.71;101253.00;4996825;28;20549;-72
2023/07/06 08:49:52;;;;;;;5.07;1.10;;;;;;;20.42;56.77;101262.97;4996745;28;20511;-73
2023/07/06 08:52:20;;;;;;;5.03;1.13;;;;;;;20.36;55.79;101258.84;4996617;28;20465;-72
2023/07/06 08:54:51;;;;;;;5.03;1.00;;;;;;;20.40;55.66;101268.00;4996323;28;20540;-72
2023/07/06 08:57:21;;;;;;;5.17;1.00;;;;;;;20.58;56.65;101263.03;4996401;28;20441;-72
2023/07/06 08:59:51;;;;;;;4.63;0.93;;;;;;;20.85;57.68;101269.63;4996774;28;20441;-73
2023/07/06 09:02:20;;;;;;;4.70;1.10;;;;;;;21.17;58.06;101263.00;4996238;28;20520;-72
2023/07/06 09:04:50;;;;;;;4.80;1.23;;;;;;;21.26;52.59;101270.28;4996425;28;20444;-74
2023/07/06 09:07:18;;;;;;;4.50;0.80;;;;;;;21.25;55.01;101275.00;4995769;28;20476;-72
2023/07/06 09:09:47;;;;;;;6.53;1.10;;;;;;;21.28;53.04;101276.22;5009395;23;20503;-79
2023/07/06 09:12:20;;;;;;;4.47;0.90;;;;;;;21.20;53.41;101264.22;5023776;28;20432;-79
2023/07/06 09:14:53;;;;;;;4.43;0.90;;;;;;;21.17;54.04;101268.50;5021567;28;20927;-79
2023/07/06 09:17:21;;;;;;;5.20;1.17;;;;;;;21.15;55.11;101264.50;5017684;23;21154;-79
2023/07/06 09:19:47;;;;;;;5.07;1.40;;;;;;;21.08;53.84;101275.34;5002331;28;20445;-80
2023/07/06 09:22:14;;;;;;;5.70;1.47;;;;;;;20.99;53.42;101280.25;5002699;28;20461;-79
2023/07/06 09:24:45;;;;;;;5.30;0.90;;;;;;;20.86;55.15;101272.06;5000352;28;20453;-79
2023/07/06 09:27:18;;;;;;;5.80;1.27;;;;;;;20.78;55.54;101270.25;5001117;28;20465;-80
2023/07/06 09:29:56;;;;;;;4.47;1.10;;;;;;;20.81;56.42;101266.81;5000502;28;20473;-80
2023/07/06 09:32:24;;;;;;;4.67;1.10;;;;;;;20.90;54.40;101267.44;4999227;28;20923;-79
2023/07/06 09:34:52;;;;;;;6.30;1.40;;;;;;;21.08;54.48;101265.13;4999699;28;20544;-79
2023/07/06 09:37:20;;;;;;;5.17;1.30;;;;;;;21.29;54.11;101270.34;4997786;28;20472;-81
2023/07/06 09:39:58;;;;;;;4.80;1.37;;;;;;;21.41;53.61;101262.00;4997086;28;20449;-80
2023/07/06 09:42:25;;;;;;;5.27;1.30;;;;;;;21.45;52.57;101266.81;4998418;28;20789;-80
2023/07/06 09:44:53;;;;;;;5.00;1.10;;;;;;;21.37;52.82;101272.16;4998135;28;20479;-81
2023/07/06 09:47:20;;;;;;;4.63;1.10;;;;;;;21.22;52.91;101263.88;4998882;28;20465;-81
2023/07/06 09:49:54;;;;;;;5.00;1.10;;;;;;;21.19;54.44;101261.81;4998126;28;20520;-81
2023/07/06 09:52:22;;;;;;;5.00;1.23;;;;;;;21.15;54.38;101272.75;4997811;28;20802;-81
2023/07/06 09:54:55;;;;;;;5.00;1.40;;;;;;;21.18;53.23;101272.06;4997422;28;20495;-81
2023/07/06 09:57:24;;;;;;;5.27;1.30;;;;;;;;;;4997767;28;20475;-80
2023/07/06 09:59:52;;;;;;;4.83;1.00;;;;;;;21.35;52.54;101274.47;4997236;28;20460;-81
2023/07/06 10:02:37;;;;;;;5.40;1.20;;;;;;;21.50;53.52;101263.78;4997888;28;20457;-80
2023/07/06 10:05:21;;;;;;;4.43;0.97;;;;;;;21.80;54.39;101269.56;4997456;28;20932;-80
2023/07/06 10:07:54;;;;;;;4.90;0.97;;;;;;;21.91;52.57;101267.84;4997059;28;20473;-81
2023/07/06 10:10:36;;;;;;;5.63;1.50;;;;;;;22.07;51.45;101267.78;4997163;28;20580;-82
2023/07/06 10:13:07;;;;;;;17.70;3.40;;;;;;;22.20;51.18;101261.00;4996738;28;20429;-81
2023/07/06 10:15:43;;;;;;;5.27;1.30;;;;;;;22.17;51.03;101267.22;4996172;28;20524;-81
2023/07/06 10:18:17;;;;;;;4.50;0.83;;;;;;;22.06;51.00;101266.19;4995892;28;20500;-82
2023/07/06 10:20:53;;;;;;;4.30;1.00;;;;;;;22.09;50.94;101265.44;4996427;28;20475;-81
2023/07/06 10:23:32;;;;;;;5.33;1.27;;;;;;;22.06;52.57;101261.47;4996903;28;20436;-82
2023/07/06 10:26:14;;;;;;;5.17;0.97;;;;;;;22.19;52.96;101264.13;4996357;28;20439;-80
2023/07/06 10:28:46;;;;;;;5.20;1.40;;;;;;;22.47;50.17;101266.63;4996439;28;20917;-79
2023/07/06 10:31:17;;;;;;;5.63;1.30;;;;;;;22.72;49.43;101273.44;4997553;28;20575;-80
2023/07/06 10:33:57;;;;;;;6.60;1.17;;;;;;;22.86;49.18;101265.38;4997916;28;20468;-80
2023/07/06 10:36:32;;;;;;;4.37;0.90;;;;;;;22.87;51.09;101268.94;4997817;28;20564;-80
2023/07/06 10:38:59;;;;;;;5.33;1.40;;;;;;;22.91;50.93;101269.84;4997395;28;20853;-79
2023/07/06 10:41:31;;;;;;;4.90;1.30;;;;;;;22.82;49.05;101272.00;4996521;28;20496;-79
2023/07/06 10:44:01;;;;;;;6.20;1.23;;;;;;;22.73;48.39;101272.25;4996046;28;20488;-81
2023/07/06 10:46:32;;;;;;;4.83;1.00;;;;;;;22.69;48.27;101274.16;4995832;28;20468;-80
2023/07/06 10:49:15;;;;;;;4.73;1.00;;;;;;;22.56;49.08;101276.28;4996820;28;20443;-81
2023/07/06 10:51:50;;;;;;;4.50;1.10;;;;;;;22.60;49.06;101277.16;4995626;28;20980;-81
2023/07/06 10:54:19;;;;;;;6.27;1.03;;;;;;;22.99;49.40;101276.28;4995656;28;20428;-80
2023/07/06 10:56:50;;;;;;;5.30;1.17;;;;;;;23.27;48.57;101275.97;4995926;28;20539;-80
2023/07/06 10:59:23;;;;;;;4.87;1.20;;;;;;;23.69;47.80;101278.63;4996460;28;20940;-80
2023/07/06 11:02:03;;;;;;;5.13;1.20;;;;;;;23.77;46.58;101288.59;4998077;28;20460;-80
2023/07/06 11:04:55;;;;;;;4.70;1.13;;;;;;;23.53;45.87;101286.22;4995540;28;20917;-82
2023/07/06 11:07:45;;;;;;;4.67;1.13;;;;;;;23.28;46.67;101283.88;4991564;28;20468;-80
2023/07/06 11:10:32;;;;;;;4.50;1.00;;;;;;;23.06;46.53;101287.44;4997211;28;20473;-81
2023/07/06 11:13:16;;;;;;;5.00;1.10;;;;;;;22.79;47.62;101289.31;4996272;28;20505;-80
2023/07/06 11:15:56;;;;;;;4.60;1.13;;;;;;;22.78;47.07;101294.03;4995904;28;20508;-80
2023/07/06 11:18:28;;;;;;;4.93;0.90;;;;;;;22.75;47.97;101292.00;4996436;28;20439;-79
2023/07/06 11:21:02;;;;;;;6.30;1.10;;;;;;;22.92;48.40;101291.56;4996456;28;20468;-80
2023/07/06 11:23:36;;;;;;;5.03;1.70;;;;;;;23.55;46.53;101295.78;4996857;28;20441;-79
2023/07/06 11:26:07;;;;;;;4.77;1.20;;;;;;;24.31;46.41;101300.38;4996463;28;20472;-81
2023/07/06 11:28:34;;;;;;;5.60;1.23;;;;;;;25.05;44.99;101305.13;4997945;28;20441;-80
2023/07/06 11:31:08;;;;;;;4.30;0.80;;;;;;;25.68;42.40;101312.38;4998311;28;20930;-80
2023/07/06 11:33:45;;;;;;;4.43;0.83;;;;;;;26.00;42.55;101315.38;4996391;28;20438;-81
2023/07/06 11:36:17;;;;;;;5.20;1.40;;;;;;;26.17;40.28;101313.88;4995240;28;20912;-80